createdAt,value
2023-03-05T00:01:18.397Z,61.35
2023-03-05T00:03:46.806Z,61.67
2023-03-05T00:06:14.385Z,61.75
2023-03-05T00:08:41.833Z,61.50
2023-03-05T00:11:11.730Z,61.52
2023-03-05T00:13:39.966Z,61.41
2023-03-05T00:16:09.684Z,61.56
2023-03-05T00:18:37.952Z,61.81
2023-03-05T00:21:06.032Z,62.04
2023-03-05T00:23:33.829Z,62.44
2023-03-05T00:26:03.803Z,61.72
2023-03-05T00:28:31.242Z,62.29
2023-03-05T00:31:01.337Z,62.52
2023-03-05T00:33:28.924Z,62.94
2023-03-05T00:35:55.997Z,63.37
2023-03-05T00:38:23.353Z,63.31
2023-03-05T00:40:51.688Z,63.41
2023-03-05T00:43:18.890Z,63.81
2023-03-05T00:45:46.056Z,64.55
2023-03-05T00:48:13.276Z,64.15
2023-03-05T00:50:40.541Z,63.70
2023-03-05T00:53:07.736Z,64.17
2023-03-05T00:55:36.170Z,64.41
2023-03-05T00:58:03.493Z,64.40
2023-03-05T01:00:30.432Z,64.56
2023-03-05T01:02:58.076Z,64.32
2023-03-05T01:05:26.439Z,64.41
2023-03-05T01:07:54.745Z,64.68
2023-03-05T01:10:23.724Z,64.69
2023-03-05T01:12:51.111Z,65.02
2023-03-05T01:15:18.522Z,65.22
2023-03-05T01:17:45.940Z,64.63
2023-03-05T01:20:15.533Z,64.46
2023-03-05T01:22:42.752Z,65.25
2023-03-05T01:25:10.422Z,65.35
2023-03-05T01:27:37.670Z,65.05
2023-03-05T01:30:08.568Z,65.40
2023-03-05T01:32:36.345Z,65.70
2023-03-05T01:35:05.180Z,65.22
2023-03-05T01:37:32.859Z,65.05
2023-03-05T01:40:00.107Z,65.31
2023-03-05T01:42:27.410Z,65.48
2023-03-05T01:45:13.390Z,65.96
2023-03-05T01:47:40.577Z,66.37
2023-03-05T01:50:16.053Z,66.17
2023-03-05T01:52:49.309Z,66.27
2023-03-05T01:55:26.152Z,66.58
2023-03-05T01:58:01.986Z,66.66
2023-03-05T02:00:38.616Z,67.04
2023-03-05T02:03:09.790Z,67.56
2023-03-05T02:05:39.095Z,67.64
2023-03-05T02:08:10.433Z,67.59
2023-03-05T02:10:40.465Z,67.92
2023-03-05T02:13:12.319Z,68.40
2023-03-05T02:15:39.801Z,68.63
2023-03-05T02:18:08.114Z,68.76
2023-03-05T02:21:00.416Z,68.69
2023-03-05T02:23:32.880Z,68.79
2023-03-05T02:26:00.147Z,68.72
2023-03-05T02:28:27.825Z,69.58
2023-03-05T02:30:54.700Z,70.06
2023-03-05T02:33:22.910Z,70.27
2023-03-05T02:35:50.199Z,70.53
2023-03-05T02:38:20.839Z,71.09
2023-03-05T02:40:48.162Z,70.70
2023-03-05T02:43:18.063Z,71.43
2023-03-05T02:45:45.679Z,71.38
2023-03-05T02:48:12.906Z,71.35
2023-03-05T02:50:41.516Z,72.08
2023-03-05T02:53:09.081Z,72.14
2023-03-05T02:55:37.766Z,72.28
2023-03-05T02:58:06.174Z,72.43
2023-03-05T03:00:33.473Z,72.29
2023-03-05T03:03:00.655Z,72.27
2023-03-05T03:05:27.578Z,72.52
2023-03-05T03:07:56.248Z,72.45
2023-03-05T03:10:23.639Z,72.37
2023-03-05T03:12:50.869Z,72.37
2023-03-05T03:15:18.792Z,72.99
2023-03-05T03:17:46.288Z,72.74
2023-03-05T03:20:16.657Z,72.83
2023-03-05T03:22:46.104Z,72.16
2023-03-05T03:25:18.769Z,71.95
2023-03-05T03:27:46.312Z,71.79
2023-03-05T03:30:13.992Z,72.10
2023-03-05T03:32:41.638Z,71.58
2023-03-05T03:35:09.531Z,71.79
2023-03-05T03:37:37.081Z,70.60
2023-03-05T03:40:05.828Z,70.79
2023-03-05T03:42:33.867Z,71.11
2023-03-05T03:45:02.322Z,71.02
2023-03-05T03:47:31.152Z,71.29
2023-03-05T03:49:59.053Z,70.95
2023-03-05T03:52:27.140Z,70.52
2023-03-05T03:54:55.814Z,70.79
2023-03-05T03:57:23.641Z,70.16
2023-03-05T03:59:51.062Z,70.40
2023-03-05T04:02:18.750Z,70.73
2023-03-05T04:04:45.798Z,70.35
2023-03-05T04:07:13.198Z,70.55
2023-03-05T04:09:40.069Z,70.50
2023-03-05T04:12:07.754Z,70.12
2023-03-05T04:14:35.152Z,70.01
2023-03-05T04:17:02.967Z,69.80
2023-03-05T04:19:31.033Z,70.01
2023-03-05T04:21:59.169Z,69.72
2023-03-05T04:24:26.298Z,69.52
2023-03-05T04:26:53.978Z,69.69
2023-03-05T04:29:21.171Z,69.93
2023-03-05T04:31:48.336Z,69.96
2023-03-05T04:34:15.490Z,69.96
2023-03-05T04:36:42.646Z,69.77
2023-03-05T04:39:09.561Z,69.38
2023-03-05T04:41:36.762Z,69.25
2023-03-05T04:44:03.897Z,69.27
2023-03-05T04:46:31.222Z,68.85
2023-03-05T04:48:59.169Z,68.97
2023-03-05T04:51:26.553Z,69.28
2023-03-05T04:53:53.882Z,68.85
2023-03-05T04:56:21.070Z,68.44
2023-03-05T04:58:48.326Z,68.52
2023-03-05T05:01:15.651Z,68.81
2023-03-05T05:03:42.784Z,68.42
2023-03-05T05:06:10.204Z,68.60
2023-03-05T05:08:38.198Z,68.76
2023-03-05T05:11:08.004Z,68.72
2023-03-05T05:13:35.628Z,68.74
2023-03-05T05:16:05.865Z,69.13
2023-03-05T05:18:33.286Z,69.15
2023-03-05T05:21:00.919Z,68.83
2023-03-05T05:23:28.069Z,69.27
2023-03-05T05:26:03.909Z,69.23
2023-03-05T05:28:31.690Z,69.19
2023-03-05T05:30:59.299Z,69.39
2023-03-05T05:33:27.286Z,69.00
2023-03-05T05:35:54.788Z,69.33
2023-03-05T05:38:21.942Z,69.13
2023-03-05T05:40:49.076Z,69.05
2023-03-05T05:43:16.157Z,68.93
2023-03-05T05:45:43.695Z,68.83
2023-03-05T05:48:10.959Z,69.10
2023-03-05T05:50:39.100Z,68.67
2023-03-05T05:53:06.264Z,68.18
2023-03-05T05:55:33.545Z,67.87
2023-03-05T05:58:00.873Z,67.91
2023-03-05T06:00:30.138Z,67.24
2023-03-05T06:02:57.235Z,66.97
2023-03-05T06:05:24.599Z,66.66
2023-03-05T06:07:51.545Z,66.05
2023-03-05T06:10:19.846Z,65.96
2023-03-05T06:12:47.542Z,65.84
2023-03-05T06:15:15.022Z,65.53
2023-03-05T06:17:42.045Z,65.26
2023-03-05T06:20:10.537Z,65.52
2023-03-05T06:22:39.410Z,65.45
2023-03-05T06:25:08.303Z,65.43
2023-03-05T06:27:36.443Z,65.25
2023-03-05T06:30:05.592Z,65.04
2023-03-05T06:32:32.803Z,65.26
2023-03-05T06:35:00.151Z,64.01
2023-03-05T06:37:27.076Z,63.89
2023-03-05T06:39:54.338Z,63.97
2023-03-05T06:42:21.534Z,63.42
2023-03-05T06:44:48.762Z,63.66
2023-03-05T06:47:15.991Z,62.54
2023-03-05T06:49:43.288Z,62.18
2023-03-05T06:52:11.126Z,61.89
2023-03-05T06:54:38.308Z,61.72
2023-03-05T06:57:05.560Z,61.24
2023-03-05T06:59:32.683Z,61.50
2023-03-05T07:02:00.017Z,60.57
2023-03-05T07:04:27.475Z,60.66
2023-03-05T07:06:55.813Z,60.03
2023-03-05T07:09:23.093Z,60.03
2023-03-05T07:11:50.545Z,60.42
2023-03-05T07:14:17.687Z,60.18
2023-03-05T07:16:44.724Z,59.97
2023-03-05T07:19:12.102Z,60.05
2023-03-05T07:21:40.131Z,59.94
2023-03-05T07:24:08.420Z,58.89
2023-03-05T07:26:36.014Z,58.51
2023-03-05T07:29:04.791Z,59.04
2023-03-05T07:31:32.498Z,58.96
2023-03-05T07:34:02.728Z,59.65
2023-03-05T07:36:31.078Z,59.33
2023-03-05T07:38:58.241Z,59.47
2023-03-05T07:41:25.378Z,58.82
2023-03-05T07:43:54.355Z,59.80
2023-03-05T07:46:25.080Z,59.18
2023-03-05T07:48:54.737Z,59.06
2023-03-05T07:51:24.101Z,58.80
2023-03-05T07:53:52.591Z,58.83
2023-03-05T07:56:24.523Z,58.69
2023-03-05T07:58:52.750Z,58.86
2023-03-05T08:01:19.845Z,58.85
2023-03-05T08:03:47.365Z,59.01
2023-03-05T08:06:14.285Z,59.08
2023-03-05T08:08:41.544Z,59.29
2023-03-05T08:11:11.782Z,59.09
2023-03-05T08:13:40.040Z,58.89
2023-03-05T08:16:09.418Z,59.54
2023-03-05T08:18:37.572Z,59.56
2023-03-05T08:21:04.664Z,60.39
2023-03-05T08:23:34.478Z,60.84
2023-03-05T08:26:01.645Z,60.93
2023-03-05T08:28:29.482Z,61.16
2023-03-05T08:30:56.537Z,61.18
2023-03-05T08:33:24.125Z,60.87
2023-03-05T08:35:51.035Z,61.15
2023-03-05T08:38:20.941Z,61.01
2023-03-05T08:40:48.449Z,61.78
2023-03-05T08:43:17.474Z,61.08
2023-03-05T08:45:47.452Z,61.28
2023-03-05T08:48:15.620Z,61.55
2023-03-05T08:50:42.799Z,61.02
2023-03-05T08:53:09.944Z,61.45
2023-03-05T08:55:38.106Z,61.07
2023-03-05T08:58:05.362Z,60.82
2023-03-05T09:00:32.478Z,60.33
2023-03-05T09:03:01.324Z,60.94
2023-03-05T09:05:28.241Z,60.70
2023-03-05T09:07:55.640Z,62.20
2023-03-05T09:10:22.885Z,61.01
2023-03-05T09:12:50.352Z,61.22
2023-03-05T09:15:17.189Z,61.60
2023-03-05T09:17:44.653Z,62.24
2023-03-05T09:20:13.113Z,61.51
2023-03-05T09:22:40.696Z,62.17
2023-03-05T09:25:09.127Z,61.80
2023-03-05T09:27:37.811Z,61.87
2023-03-05T09:30:06.046Z,62.33
2023-03-05T09:32:34.000Z,63.47
2023-03-05T09:35:01.130Z,63.55
2023-03-05T09:37:29.476Z,62.90
2023-03-05T09:39:57.430Z,62.72
2023-03-05T09:42:43.213Z,63.36
2023-03-05T09:45:14.190Z,62.91
2023-03-05T09:47:46.677Z,62.73
2023-03-05T09:50:50.655Z,63.13
2023-03-05T09:53:22.520Z,62.71
2023-03-05T09:55:54.348Z,63.08
2023-03-05T09:58:45.026Z,63.13
2023-03-05T10:01:27.315Z,63.33
2023-03-05T10:04:04.348Z,62.96
2023-03-05T10:06:36.986Z,62.72
2023-03-05T10:09:11.334Z,63.09
2023-03-05T10:11:53.452Z,63.58
2023-03-05T10:14:33.478Z,62.40
2023-03-05T10:17:03.329Z,62.66
2023-03-05T10:19:54.224Z,63.76
2023-03-05T10:22:24.891Z,63.66
2023-03-05T10:25:11.077Z,63.95
2023-03-05T10:27:50.511Z,64.64
2023-03-05T10:30:30.440Z,64.69
2023-03-05T10:33:24.084Z,65.29
2023-03-05T10:36:06.346Z,65.62
2023-03-05T10:38:52.917Z,65.25
2023-03-05T10:42:06.464Z,66.77
2023-03-05T10:44:40.685Z,66.75
2023-03-05T10:47:25.549Z,67.64
2023-03-05T10:49:56.297Z,67.17
2023-03-05T10:52:40.661Z,67.20
2023-03-05T10:55:20.960Z,67.36
2023-03-05T10:57:48.780Z,68.30
2023-03-05T11:00:29.017Z,68.12
2023-03-05T11:03:07.821Z,68.42
2023-03-05T11:06:03.546Z,68.09
2023-03-05T11:08:35.896Z,68.25
2023-03-05T11:11:04.037Z,67.78
2023-03-05T11:13:33.079Z,67.97
2023-03-05T11:16:03.990Z,69.51
2023-03-05T11:18:34.663Z,70.32
2023-03-05T11:21:19.906Z,71.74
2023-03-05T11:24:18.345Z,73.13
2023-03-05T11:26:50.279Z,73.95
2023-03-05T11:29:27.381Z,75.12
2023-03-05T11:31:54.857Z,75.92
2023-03-05T11:34:35.341Z,77.62
2023-03-05T11:37:04.669Z,79.35
2023-03-05T11:39:35.323Z,78.86
2023-03-05T11:42:11.976Z,79.90
2023-03-05T11:44:48.555Z,81.14
2023-03-05T11:47:28.577Z,82.29
2023-03-05T11:50:05.894Z,83.02
2023-03-05T11:52:45.002Z,82.55
2023-03-05T11:55:33.092Z,83.68
2023-03-05T11:58:12.438Z,83.90
2023-03-05T12:00:44.606Z,84.02
2023-03-05T12:03:16.520Z,83.46
2023-03-05T12:05:48.468Z,82.16
2023-03-05T12:08:26.513Z,81.03
2023-03-05T12:10:53.783Z,82.16
2023-03-05T12:13:46.635Z,82.91
2023-03-05T12:16:39.475Z,83.62
2023-03-05T12:19:41.905Z,81.67
2023-03-05T12:22:20.032Z,81.09
2023-03-05T12:24:47.605Z,81.86
2023-03-05T12:27:31.088Z,82.93
2023-03-05T12:30:01.544Z,81.84
2023-03-05T12:32:48.718Z,82.37
2023-03-05T12:35:26.770Z,84.50
2023-03-05T12:37:54.329Z,85.85
2023-03-05T12:40:25.628Z,83.73
2023-03-05T12:43:05.106Z,84.84
2023-03-05T12:45:37.183Z,85.39
2023-03-05T12:48:10.900Z,86.01
2023-03-05T12:50:38.244Z,86.91
2023-03-05T12:53:14.132Z,87.76
2023-03-05T12:55:47.397Z,87.15
2023-03-05T12:58:39.874Z,88.01
2023-03-05T13:01:23.464Z,87.20
2023-03-05T13:03:57.110Z,87.98
2023-03-05T13:06:34.702Z,88.16
2023-03-05T13:09:08.203Z,86.58
2023-03-05T13:11:39.193Z,87.90
2023-03-05T13:14:23.657Z,89.30
2023-03-05T13:16:50.786Z,89.60
2023-03-05T13:19:18.365Z,89.98
2023-03-05T13:21:45.340Z,87.73
2023-03-05T13:24:18.374Z,87.57
2023-03-05T13:26:45.695Z,88.23
2023-03-05T13:29:14.322Z,87.98
2023-03-05T13:31:55.887Z,88.34
2023-03-05T13:34:40.940Z,87.98
2023-03-05T13:37:21.730Z,87.68
2023-03-05T13:39:52.134Z,86.32
2023-03-05T13:42:23.620Z,86.65
2023-03-05T13:44:58.832Z,86.25
2023-03-05T13:47:29.819Z,87.49
2023-03-05T13:50:05.135Z,88.17
2023-03-05T13:52:34.684Z,88.28
2023-03-05T13:55:04.522Z,87.58
2023-03-05T13:57:35.922Z,88.05
2023-03-05T14:00:08.363Z,87.44
2023-03-05T14:02:35.334Z,86.67
2023-03-05T14:05:02.600Z,86.74
2023-03-05T14:07:33.998Z,86.79
2023-03-05T14:10:03.846Z,87.84
2023-03-05T14:12:40.981Z,88.16
2023-03-05T14:15:22.432Z,87.92
2023-03-05T14:17:50.005Z,87.40
2023-03-05T14:20:28.182Z,87.11
2023-03-05T14:23:00.693Z,87.15
2023-03-05T14:25:38.359Z,86.59
2023-03-05T14:28:20.349Z,85.89
2023-03-05T14:30:50.984Z,87.40
2023-03-05T14:33:31.318Z,86.77
2023-03-05T14:36:01.382Z,87.86
2023-03-05T14:38:31.735Z,87.00
2023-03-05T14:41:19.237Z,86.40
2023-03-05T14:43:46.549Z,86.74
2023-03-05T14:46:14.001Z,87.33
2023-03-05T14:48:41.064Z,87.65
2023-03-05T14:51:11.518Z,86.96
2023-03-05T14:53:50.254Z,87.59
2023-03-05T14:56:23.918Z,88.45
2023-03-05T14:58:51.440Z,88.14
2023-03-05T15:01:18.753Z,87.00
2023-03-05T15:03:45.698Z,88.36
2023-03-05T15:06:27.219Z,88.65
2023-03-05T15:08:54.385Z,88.87
2023-03-05T15:11:22.742Z,88.53
2023-03-05T15:13:52.713Z,86.99
2023-03-05T15:16:20.729Z,87.05
2023-03-05T15:18:48.877Z,86.72
2023-03-05T15:21:16.359Z,87.38
2023-03-05T15:23:45.065Z,87.73
2023-03-05T15:26:15.090Z,88.14
2023-03-05T15:28:42.987Z,88.26
2023-03-05T15:31:10.826Z,88.36
2023-03-05T15:33:38.136Z,87.83
2023-03-05T15:36:05.725Z,88.09
2023-03-05T15:38:33.022Z,87.89
2023-03-05T15:41:01.959Z,88.07
2023-03-05T15:43:30.819Z,88.65
2023-03-05T15:45:58.109Z,88.78
2023-03-05T15:48:25.264Z,88.67
2023-03-05T15:50:52.709Z,88.20
2023-03-05T15:53:21.555Z,88.58
2023-03-05T15:55:48.992Z,88.67
2023-03-05T15:58:17.636Z,89.57
2023-03-05T16:00:47.415Z,89.96
2023-03-05T16:03:15.495Z,90.33
2023-03-05T16:05:43.345Z,90.37
2023-03-05T16:08:10.744Z,89.96
2023-03-05T16:10:39.624Z,90.23
2023-03-05T16:13:13.656Z,90.58
2023-03-05T16:15:42.376Z,90.83
2023-03-05T16:18:14.165Z,91.35
2023-03-05T16:20:42.072Z,90.83
2023-03-05T16:23:09.010Z,90.86
2023-03-05T16:25:37.883Z,91.10
2023-03-05T16:28:04.869Z,91.40
2023-03-05T16:30:33.150Z,91.61
2023-03-05T16:33:00.598Z,91.84
2023-03-05T16:35:27.839Z,91.93
2023-03-05T16:37:54.872Z,92.05
2023-03-05T16:40:22.244Z,92.07
2023-03-05T16:42:49.496Z,92.25
2023-03-05T16:45:16.787Z,92.85
2023-03-05T16:47:43.742Z,92.80
2023-03-05T16:50:12.068Z,92.94
2023-03-05T16:52:39.282Z,93.30
2023-03-05T16:55:07.414Z,93.53
2023-03-05T16:57:34.999Z,93.64
2023-03-05T17:00:04.331Z,93.56
2023-03-05T17:02:31.461Z,93.89
2023-03-05T17:04:58.759Z,93.83
2023-03-05T17:07:26.630Z,94.20
2023-03-05T17:09:54.788Z,94.36
2023-03-05T17:12:23.294Z,94.33
2023-03-05T17:14:50.570Z,94.49
2023-03-05T17:17:17.639Z,94.68
2023-03-05T17:19:45.120Z,94.59
2023-03-05T17:22:12.970Z,94.52
2023-03-05T17:24:42.891Z,94.60
2023-03-05T17:27:10.619Z,95.00
2023-03-05T17:29:38.136Z,95.02
2023-03-05T17:32:06.036Z,95.04
2023-03-05T17:34:36.775Z,95.42
2023-03-05T17:37:04.995Z,95.15
2023-03-05T17:39:32.815Z,95.82
2023-03-05T17:42:00.872Z,95.60
2023-03-05T17:44:28.062Z,95.63
2023-03-05T17:46:55.007Z,95.79
2023-03-05T17:49:22.577Z,96.13
2023-03-05T17:51:49.488Z,96.62
2023-03-05T17:54:17.079Z,96.70
2023-03-05T17:56:44.096Z,96.51
2023-03-05T17:59:11.528Z,97.00
2023-03-05T18:01:38.435Z,96.72
2023-03-05T18:04:05.885Z,97.20
2023-03-05T18:06:33.359Z,97.42
2023-03-05T18:09:00.901Z,97.19
2023-03-05T18:11:29.073Z,97.49
2023-03-05T18:13:56.617Z,97.89
2023-03-05T18:16:25.454Z,98.19
2023-03-05T18:18:53.231Z,98.37
2023-03-05T18:21:25.267Z,98.77
2023-03-05T18:23:52.538Z,98.96
2023-03-05T18:26:19.511Z,98.94
2023-03-05T18:28:47.713Z,99.19
2023-03-05T18:31:14.667Z,98.86
2023-03-05T18:33:43.002Z,99.02
2023-03-05T18:36:11.860Z,99.20
2023-03-05T18:38:39.650Z,99.27
2023-03-05T18:41:07.958Z,99.30
2023-03-05T18:43:35.805Z,99.24
2023-03-05T18:46:05.108Z,99.52
2023-03-05T18:48:32.406Z,99.15
2023-03-05T18:51:01.850Z,99.22
2023-03-05T18:53:29.958Z,98.92
2023-03-05T18:56:01.913Z,99.20
2023-03-05T18:58:29.143Z,99.11
2023-03-05T19:00:56.365Z,99.17
2023-03-05T19:03:23.884Z,99.06
2023-03-05T19:05:52.414Z,99.07
2023-03-05T19:08:20.323Z,98.98
2023-03-05T19:10:48.048Z,98.41
2023-03-05T19:13:40.032Z,98.01
2023-03-05T19:16:19.038Z,98.46
2023-03-05T19:19:08.943Z,98.46
2023-03-05T19:21:36.312Z,99.14
2023-03-05T19:24:03.574Z,98.83
2023-03-05T19:26:30.825Z,99.00
2023-03-05T19:28:58.123Z,99.26
2023-03-05T19:31:25.310Z,99.22
2023-03-05T19:33:54.687Z,98.90
2023-03-05T19:36:21.975Z,99.25
2023-03-05T19:38:49.737Z,99.41
2023-03-05T19:41:18.036Z,99.13
2023-03-05T19:43:46.658Z,99.52
2023-03-05T19:46:13.836Z,99.26
2023-03-05T19:48:41.602Z,99.34
2023-03-05T19:51:14.222Z,98.92
2023-03-05T19:53:42.355Z,99.51
2023-03-05T19:56:10.467Z,99.76
2023-03-05T19:58:38.756Z,99.88
2023-03-05T20:01:21.793Z,99.91
2023-03-05T20:03:51.850Z,100.00
2023-03-05T20:06:19.632Z,100.00
2023-03-05T20:08:48.326Z,100.00
2023-03-05T20:11:17.441Z,99.85
2023-03-05T20:13:45.184Z,100.00
2023-03-05T20:16:24.044Z,100.00
2023-03-05T20:18:54.782Z,99.77
2023-03-05T20:21:28.340Z,99.50
2023-03-05T20:23:58.205Z,99.90
2023-03-05T20:26:27.023Z,99.61
2023-03-05T20:28:55.430Z,99.96
2023-03-05T20:31:25.267Z,99.88
2023-03-05T20:33:52.593Z,99.80
2023-03-05T20:36:20.541Z,99.41
2023-03-05T20:38:47.737Z,99.39
2023-03-05T20:41:17.102Z,99.63
2023-03-05T20:43:47.709Z,99.44
2023-03-05T20:46:36.458Z,99.41
2023-03-05T20:49:04.648Z,99.17
2023-03-05T20:51:37.805Z,99.50
2023-03-05T20:54:08.724Z,99.49
2023-03-05T20:56:36.172Z,99.25
2023-03-05T20:59:06.262Z,99.60
2023-03-05T21:01:35.638Z,99.36
2023-03-05T21:04:04.007Z,98.61
2023-03-05T21:06:32.740Z,98.65
2023-03-05T21:09:00.638Z,98.36
2023-03-05T21:11:29.912Z,97.75
2023-03-05T21:13:58.115Z,98.25
2023-03-05T21:16:27.303Z,97.93
2023-03-05T21:18:57.202Z,97.84
2023-03-05T21:21:24.227Z,98.03
2023-03-05T21:23:52.200Z,97.54
2023-03-05T21:26:19.706Z,97.01
2023-03-05T21:28:48.008Z,96.60
2023-03-05T21:31:20.565Z,96.32
2023-03-05T21:33:48.218Z,96.23
2023-03-05T21:36:18.730Z,96.29
2023-03-05T21:38:47.546Z,96.13
2023-03-05T21:41:14.688Z,96.32
2023-03-05T21:43:42.749Z,96.04
2023-03-05T21:46:10.981Z,96.04
2023-03-05T21:48:38.510Z,96.14
2023-03-05T21:51:08.863Z,95.93
2023-03-05T21:53:36.572Z,95.72
2023-03-05T21:56:21.116Z,95.55
2023-03-05T21:58:49.738Z,95.52
2023-03-05T22:01:19.296Z,95.25
2023-03-05T22:03:47.850Z,95.32
2023-03-05T22:06:16.986Z,95.25
2023-03-05T22:08:46.199Z,95.44
2023-03-05T22:11:16.572Z,95.37
2023-03-05T22:13:44.368Z,94.80
2023-03-05T22:16:11.720Z,94.97
2023-03-05T22:18:39.285Z,94.92
2023-03-05T22:21:18.548Z,94.46
2023-03-05T22:23:47.004Z,94.24
2023-03-05T22:26:14.084Z,94.27
2023-03-05T22:28:42.718Z,94.50
2023-03-05T22:31:10.438Z,93.87
2023-03-05T22:33:37.868Z,93.28
2023-03-05T22:36:10.422Z,93.32
2023-03-05T22:38:38.008Z,93.21
2023-03-05T22:41:10.774Z,93.04
2023-03-05T22:43:38.375Z,93.14
2023-03-05T22:46:26.096Z,93.50
2023-03-05T22:48:53.856Z,93.12
2023-03-05T22:51:21.150Z,93.70
2023-03-05T22:53:49.069Z,93.80
2023-03-05T22:56:18.818Z,93.95
2023-03-05T22:58:47.166Z,94.04
2023-03-05T23:01:20.453Z,93.60
2023-03-05T23:03:53.306Z,93.59
2023-03-05T23:06:20.501Z,93.37
2023-03-05T23:08:47.905Z,93.81
2023-03-05T23:11:14.955Z,93.98
2023-03-05T23:13:42.460Z,93.89
2023-03-05T23:16:09.812Z,94.03
2023-03-05T23:18:37.548Z,94.43
2023-03-05T23:21:04.646Z,94.11
2023-03-05T23:23:32.869Z,94.33
2023-03-05T23:25:59.680Z,94.66
2023-03-05T23:28:27.434Z,94.34
2023-03-05T23:30:54.364Z,94.68
2023-03-05T23:33:23.340Z,94.76
2023-03-05T23:35:59.507Z,94.85
2023-03-05T23:38:28.870Z,94.69
2023-03-05T23:40:59.126Z,94.37
2023-03-05T23:43:28.511Z,94.56
2023-03-05T23:45:56.657Z,94.52
2023-03-05T23:48:25.158Z,94.48
2023-03-05T23:50:52.763Z,94.22
2023-03-05T23:53:26.311Z,94.45
2023-03-05T23:55:54.102Z,94.66
2023-03-05T23:58:21.883Z,94.71
